Hovedside
METAR-TAF:

METAR-TAF

Lufthavner :

Bardufoss, Norge

Bardufoss lufthavn

breddegrad: 69-04N, lengdegrad: 018-32E, høyde over havet: 7 m

Gjeldene værobservasjon

Denne rapporten ble laget for 43 minutter siden, klokken 21:50 UTC
Flau vind
Temperatur 12°C
Luftfuktighet 88%
Trykk 1019 hPa
Sikt 10 km eller mer

METAR: ENDU 242150Z AUTO 00000KT 9999 NCD 12/10 Q1019 RMK WIND 1100FT 33005KT WIND 2200FT 06004KT

Tid: 00:33 (22:33 UTC)

Varsel

Varsel gyldig fra 24. klokken 18 UTC til 25. klokken 18 UTC
Vind 5 kt fra skiftende retning
Sikt 10 km eller mer
Få skyer i en høyde av 4000 ft
Midlertidig
fra 25. klokken 09 UTC til 25. klokken 18 UTC
Vind 10 kt fra Vest-nordvest

TAF: ENDU 2418/2518 VRB05KT 9999 FEW040 TEMPO 2509/2518 30010KT

Værobservasjoner og værvarsel for over 4000 flyplasser (METAR- og TAF-rapporter).

Tilgjengelige stasjoner er representert av de røde og gule prikkene på kartet.

Hold musepekeren over prikken for å se navnet på stasjonen.

Klikk så for å se værobservasjoner og -varsler.

For å forandre kartet kan du klikke på den grønne knappen med svart kryss for å zoome inn, på den grønne knappen med strek for å zoome ut, eller på de grønne pilene for å se tilstøtende kart.


METAR-TAF: